createdAt,value
2019-06-01T00:00:11.935Z,101600.00
2019-06-01T00:02:38.817Z,101598.83
2019-06-01T00:05:08.098Z,101605.12
2019-06-01T00:07:37.121Z,101600.74
2019-06-01T00:10:08.165Z,101598.63
2019-06-01T00:12:37.183Z,101598.12
2019-06-01T00:15:09.050Z,101592.79
2019-06-01T00:17:38.091Z,101594.48
2019-06-01T00:20:07.273Z,101591.17
2019-06-01T00:22:36.299Z,101589.93
2019-06-01T00:25:06.601Z,101597.41
2019-06-01T00:27:35.717Z,101593.03
2019-06-01T00:30:08.046Z,101595.36
2019-06-01T00:32:37.101Z,101590.18
2019-06-01T00:35:06.605Z,101596.86
2019-06-01T00:37:36.485Z,101596.63
2019-06-01T00:40:07.291Z,101589.81
2019-06-01T00:42:36.405Z,101591.72
2019-06-01T00:45:09.038Z,101572.56
2019-06-01T00:47:38.163Z,101597.36
2019-06-01T00:50:08.339Z,101596.70
2019-06-01T00:52:37.507Z,101598.20
2019-06-01T00:55:06.696Z,101554.61
2019-06-01T00:57:36.080Z,101607.32
2019-06-01T01:00:09.268Z,101606.38
2019-06-01T01:02:38.391Z,101600.14
2019-06-01T01:05:12.508Z,101602.33
2019-06-01T01:07:41.542Z,101605.43
2019-06-01T01:10:10.918Z,101605.83
2019-06-01T01:12:57.567Z,101604.66
2019-06-01T01:15:26.604Z,101603.39
2019-06-01T01:17:56.144Z,101601.85
2019-06-01T01:20:25.361Z,101607.23
2019-06-01T01:22:54.505Z,101603.31
2019-06-01T01:25:23.661Z,101609.98
2019-06-01T01:27:52.788Z,101610.62
2019-06-01T01:30:21.899Z,101617.07
2019-06-01T01:32:51.718Z,101611.43
2019-06-01T01:35:21.004Z,101611.50
2019-06-01T01:37:50.083Z,101609.47
2019-06-01T01:40:19.236Z,101610.73
2019-06-01T01:42:48.712Z,101610.24
2019-06-01T01:45:17.940Z,101614.39
2019-06-01T01:47:46.997Z,101614.44
2019-06-01T01:50:16.091Z,101610.98
2019-06-01T01:52:45.148Z,101614.09
2019-06-01T01:55:14.303Z,101608.80
2019-06-01T01:57:43.353Z,101615.53
2019-06-01T02:00:13.623Z,101607.28
2019-06-01T02:02:43.432Z,101610.24
2019-06-01T02:05:13.816Z,101614.09
2019-06-01T02:07:43.131Z,101614.29
2019-06-01T02:10:12.213Z,101604.33
2019-06-01T02:12:41.484Z,101607.63
2019-06-01T02:15:10.854Z,101596.63
2019-06-01T02:17:39.904Z,101600.66
2019-06-01T02:20:09.044Z,101600.13
2019-06-01T02:22:38.088Z,101600.92
2019-06-01T02:25:07.177Z,101602.30
2019-06-01T02:27:36.230Z,101596.40
2019-06-01T02:30:08.484Z,101602.55
2019-06-01T02:32:37.508Z,101598.47
2019-06-01T02:35:07.393Z,101600.81
2019-06-01T02:37:36.485Z,101601.55
2019-06-01T02:40:08.148Z,101603.13
2019-06-01T02:42:37.196Z,101600.39
2019-06-01T02:45:11.691Z,101605.03
2019-06-01T02:47:41.097Z,101601.38
2019-06-01T02:50:11.964Z,101600.14
2019-06-01T02:52:41.007Z,101609.53
2019-06-01T02:55:15.774Z,101606.20
2019-06-01T02:57:44.837Z,101608.73
2019-06-01T03:00:16.296Z,101603.20
2019-06-01T03:02:46.180Z,101604.08
2019-06-01T03:05:15.274Z,101596.21
2019-06-01T03:07:46.015Z,101595.23
2019-06-01T03:10:15.323Z,101598.44
2019-06-01T03:12:45.387Z,101602.27
2019-06-01T03:15:15.955Z,101603.27
2019-06-01T03:17:49.011Z,101604.88
2019-06-01T03:20:18.469Z,101611.47
2019-06-01T03:22:50.701Z,101605.64
2019-06-01T03:25:19.909Z,101598.11
2019-06-01T03:27:51.715Z,101605.40
2019-06-01T03:30:29.492Z,101599.63
2019-06-01T03:32:58.550Z,101601.94
2019-06-01T03:35:27.670Z,101601.02
2019-06-01T03:37:56.810Z,101595.06
2019-06-01T03:40:25.865Z,101595.44
2019-06-01T03:42:54.958Z,101587.44
2019-06-01T03:45:23.991Z,101589.34
2019-06-01T03:47:53.032Z,101577.75
2019-06-01T03:50:22.075Z,101584.50
2019-06-01T03:52:51.103Z,101586.46
2019-06-01T03:55:20.156Z,101583.58
2019-06-01T03:57:49.658Z,101585.96
2019-06-01T04:00:18.907Z,101592.44
2019-06-01T04:02:48.544Z,101597.41
2019-06-01T04:05:17.596Z,101604.36
2019-06-01T04:07:46.616Z,101597.52
2019-06-01T04:10:16.190Z,101599.84
2019-06-01T04:12:45.208Z,101600.52
2019-06-01T04:15:16.818Z,101609.15
2019-06-01T04:17:45.307Z,101607.41
2019-06-01T04:20:14.468Z,101609.56
2019-06-01T04:22:43.529Z,101613.59
2019-06-01T04:25:12.634Z,101615.44
2019-06-01T04:27:41.678Z,101614.35
2019-06-01T04:30:11.550Z,101612.09
2019-06-01T04:32:49.513Z,101606.64
2019-06-01T04:35:11.428Z,101612.95
2019-06-01T04:37:40.484Z,101611.98
2019-06-01T04:40:09.613Z,101613.17
2019-06-01T04:42:38.636Z,101608.03
2019-06-01T04:45:09.086Z,101608.78
2019-06-01T04:47:38.684Z,101609.84
2019-06-01T04:50:08.708Z,101603.58
2019-06-01T04:52:37.797Z,101599.92
2019-06-01T04:55:08.948Z,101598.64
2019-06-01T04:57:38.127Z,101606.22
2019-06-01T05:00:24.227Z,101603.41
2019-06-01T05:02:40.827Z,101601.92
2019-06-01T05:05:11.221Z,101599.61
2019-06-01T05:07:40.370Z,101599.95
2019-06-01T05:10:09.730Z,101603.92
2019-06-01T05:12:38.780Z,101606.36
2019-06-01T05:15:10.052Z,101605.19
2019-06-01T05:17:39.111Z,101609.22
2019-06-01T05:20:08.806Z,101612.39
2019-06-01T05:22:37.840Z,101606.08
2019-06-01T05:25:08.826Z,101612.28
2019-06-01T05:27:38.492Z,101607.48
2019-06-01T05:30:09.467Z,101619.34
2019-06-01T05:32:38.608Z,101620.52
2019-06-01T05:35:07.904Z,101617.50
2019-06-01T05:37:36.977Z,101624.96
2019-06-01T05:40:08.542Z,101627.09
2019-06-01T05:42:37.681Z,101610.95
2019-06-01T05:45:09.189Z,101611.81
2019-06-01T05:47:38.814Z,101612.58
2019-06-01T05:50:10.464Z,101611.67
2019-06-01T05:52:39.624Z,101610.63
2019-06-01T05:55:08.893Z,101611.53
2019-06-01T05:57:37.950Z,101605.50
2019-06-01T06:00:12.782Z,101608.44
2019-06-01T06:02:42.015Z,101617.20
2019-06-01T06:05:12.457Z,101612.78
2019-06-01T06:07:41.572Z,101601.78
2019-06-01T06:10:11.860Z,101600.16
2019-06-01T06:12:40.961Z,101599.97
2019-06-01T06:15:11.340Z,101597.69
2019-06-01T06:17:40.482Z,101589.75
2019-06-01T06:20:09.666Z,101588.31
2019-06-01T06:22:41.192Z,101586.03
2019-06-01T06:25:09.667Z,101584.19
2019-06-01T06:27:38.690Z,101581.03
2019-06-01T06:30:08.517Z,101582.36
2019-06-01T06:32:37.536Z,101575.63
2019-06-01T06:35:06.927Z,101566.66
2019-06-01T06:37:35.985Z,101560.84
2019-06-01T06:40:07.271Z,101558.91
2019-06-01T06:42:36.453Z,101559.42
2019-06-01T06:45:06.565Z,101555.95
2019-06-01T06:47:35.957Z,101555.84
2019-06-01T06:50:06.563Z,101553.78
2019-06-01T06:52:35.608Z,101551.96
2019-06-01T06:55:06.006Z,101555.81
2019-06-01T06:57:35.034Z,101553.50
2019-06-01T07:00:06.230Z,101543.36
2019-06-01T07:02:35.294Z,101549.55
2019-06-01T07:05:06.768Z,101543.55
2019-06-01T07:07:35.819Z,101545.56
2019-06-01T07:10:05.882Z,101534.92
2019-06-01T07:12:34.938Z,101533.40
2019-06-01T07:15:05.316Z,101537.16
2019-06-01T07:17:34.356Z,101539.42
2019-06-01T07:20:04.638Z,101532.28
2019-06-01T07:22:33.695Z,101514.06
2019-06-01T07:25:02.777Z,101524.87
2019-06-01T07:27:32.440Z,101526.92
2019-06-01T07:30:01.849Z,101526.92
2019-06-01T07:32:30.872Z,101538.45
2019-06-01T07:35:01.298Z,101526.11
2019-06-01T07:37:30.692Z,101531.77
2019-06-01T07:39:59.785Z,101538.78
2019-06-01T07:42:29.488Z,101543.28
2019-06-01T07:44:58.567Z,101535.06
2019-06-01T07:47:27.608Z,101526.58
2019-06-01T07:49:56.680Z,101519.09
2019-06-01T07:52:26.174Z,101530.28
2019-06-01T07:54:55.204Z,101538.61
2019-06-01T07:57:25.453Z,101531.73
2019-06-01T07:59:54.464Z,101536.31
2019-06-01T08:02:26.316Z,101534.46
2019-06-01T08:04:54.867Z,101532.73
2019-06-01T08:07:24.918Z,101531.91
2019-06-01T08:09:54.690Z,101541.08
2019-06-01T08:12:23.737Z,101535.97
2019-06-01T08:14:52.813Z,101538.41
2019-06-01T08:17:22.090Z,101529.02
2019-06-01T08:19:52.017Z,101531.85
2019-06-01T08:22:21.999Z,101534.84
2019-06-01T08:24:51.205Z,101533.84
2019-06-01T08:27:20.225Z,101529.01
2019-06-01T08:29:49.287Z,101530.02
2019-06-01T08:32:18.299Z,101525.83
2019-06-01T08:34:47.343Z,101517.09
2019-06-01T08:37:16.381Z,101522.82
2019-06-01T08:39:45.415Z,101532.35
2019-06-01T08:42:14.525Z,101519.06
2019-06-01T08:44:43.570Z,101525.75
2019-06-01T08:47:12.665Z,101518.51
2019-06-01T08:49:41.787Z,101520.84
2019-06-01T08:52:10.887Z,101514.66
2019-06-01T08:54:39.928Z,101514.03
2019-06-01T08:57:09.368Z,101504.21
2019-06-01T08:59:38.415Z,101510.00
2019-06-01T09:02:07.960Z,101500.11
2019-06-01T09:04:37.087Z,101494.73
2019-06-01T09:07:06.093Z,101487.73
2019-06-01T09:09:35.299Z,101491.61
2019-06-01T09:12:04.547Z,101506.62
2019-06-01T09:14:33.589Z,101501.73
2019-06-01T09:17:02.665Z,101509.69
2019-06-01T09:19:31.706Z,101499.30
2019-06-01T09:22:00.712Z,101496.92
2019-06-01T09:24:29.839Z,101495.78
2019-06-01T09:26:58.876Z,101490.95
2019-06-01T09:29:27.915Z,101494.00
2019-06-01T09:31:56.963Z,101488.19
2019-06-01T09:34:26.249Z,101478.16
2019-06-01T09:36:55.711Z,101473.94
2019-06-01T09:39:24.803Z,101478.09
2019-06-01T09:41:53.845Z,101478.45
2019-06-01T09:44:22.967Z,101468.34
2019-06-01T09:46:52.014Z,101465.55
2019-06-01T09:49:21.040Z,101471.23
2019-06-01T09:51:50.193Z,101464.69
2019-06-01T09:54:19.185Z,101465.97
2019-06-01T09:56:48.647Z,101462.44
2019-06-01T09:59:17.704Z,101453.02
2019-06-01T10:01:47.166Z,101465.08
2019-06-01T10:04:16.582Z,101463.80
2019-06-01T10:06:45.606Z,101458.05
2019-06-01T10:09:14.788Z,101463.33
2019-06-01T10:11:43.844Z,101459.91
2019-06-01T10:14:13.163Z,101454.72
2019-06-01T10:16:43.156Z,101448.58
2019-06-01T10:19:12.299Z,101452.44
2019-06-01T10:21:42.208Z,101446.59
2019-06-01T10:24:11.339Z,101445.77
2019-06-01T10:26:41.501Z,101440.09
2019-06-01T10:29:10.805Z,101441.31
2019-06-01T10:31:41.549Z,101436.72
2019-06-01T10:34:10.691Z,101433.45
2019-06-01T10:36:40.185Z,101431.99
2019-06-01T10:39:09.256Z,101435.42
2019-06-01T10:41:39.489Z,101436.63
2019-06-01T10:44:08.789Z,101429.56
2019-06-01T10:46:38.084Z,101443.66
2019-06-01T10:49:07.149Z,101428.12
2019-06-01T10:51:36.316Z,101425.27
2019-06-01T10:54:05.395Z,101429.29
2019-06-01T10:56:34.501Z,101422.72
2019-06-01T10:59:03.920Z,101423.64
2019-06-01T11:01:34.687Z,101425.55
2019-06-01T11:04:03.691Z,101427.14
2019-06-01T11:06:40.208Z,101420.95
2019-06-01T11:09:05.054Z,101422.87
2019-06-01T11:11:35.153Z,101415.02
2019-06-01T11:14:04.362Z,101417.34
2019-06-01T11:16:33.421Z,101416.37
2019-06-01T11:19:02.460Z,101417.78
2019-06-01T11:21:31.508Z,101415.45
2019-06-01T11:24:00.525Z,101409.13
2019-06-01T11:26:29.600Z,101407.24
2019-06-01T11:28:58.637Z,101401.92
2019-06-01T11:31:27.695Z,101404.56
2019-06-01T11:33:56.757Z,101398.52
2019-06-01T11:36:25.821Z,101400.84
2019-06-01T11:38:54.943Z,101397.77
2019-06-01T11:41:23.984Z,101394.56
2019-06-01T11:43:52.989Z,101390.73
2019-06-01T11:46:22.035Z,101391.45
2019-06-01T11:48:51.057Z,101386.58
2019-06-01T11:51:20.156Z,101380.67
2019-06-01T11:53:49.197Z,101377.37
2019-06-01T11:56:18.244Z,101372.69
2019-06-01T11:58:47.287Z,101367.66
2019-06-01T12:01:16.319Z,101362.83
2019-06-01T12:03:46.166Z,101368.05
2019-06-01T12:06:15.273Z,101370.47
2019-06-01T12:08:44.356Z,101363.82
2019-06-01T12:11:13.414Z,101357.48
2019-06-01T12:13:42.541Z,101346.66
2019-06-01T12:16:11.647Z,101361.19
2019-06-01T12:18:40.702Z,101360.07
2019-06-01T12:21:10.075Z,101354.93
2019-06-01T12:23:39.201Z,101344.95
2019-06-01T12:26:08.243Z,101339.33
2019-06-01T12:28:37.600Z,101336.39
2019-06-01T12:31:06.703Z,101335.01
2019-06-01T12:33:35.728Z,101337.41
2019-06-01T12:36:06.208Z,101329.52
2019-06-01T12:38:37.898Z,101335.06
2019-06-01T12:41:07.123Z,101334.11
2019-06-01T12:43:36.142Z,101324.38
2019-06-01T12:46:07.689Z,101323.64
2019-06-01T12:48:35.911Z,101324.30
2019-06-01T12:51:05.041Z,101315.54
2019-06-01T12:53:34.059Z,101314.53
2019-06-01T12:56:03.115Z,101312.38
2019-06-01T12:58:32.152Z,101309.62
2019-06-01T13:01:02.798Z,101301.19
2019-06-01T13:03:31.935Z,101303.48
2019-06-01T13:06:00.990Z,101302.37
2019-06-01T13:08:30.154Z,101293.83
2019-06-01T13:10:59.236Z,101291.18
2019-06-01T13:13:28.308Z,101291.48
2019-06-01T13:15:57.350Z,101289.92
2019-06-01T13:18:26.512Z,101288.36
2019-06-01T13:20:55.550Z,101281.07
2019-06-01T13:23:24.597Z,101282.88
2019-06-01T13:25:53.988Z,101275.84
2019-06-01T13:28:37.360Z,101271.78
2019-06-01T13:30:53.765Z,101275.57
2019-06-01T13:33:23.007Z,101268.27
2019-06-01T13:35:52.627Z,101272.55
2019-06-01T13:38:21.863Z,101269.12
2019-06-01T13:40:51.102Z,101258.02
2019-06-01T13:43:20.403Z,101265.45
2019-06-01T13:45:49.414Z,101255.98
2019-06-01T13:48:18.488Z,101251.97
2019-06-01T13:50:47.883Z,101244.54
2019-06-01T13:53:17.235Z,101246.53
2019-06-01T13:55:46.294Z,101236.64
2019-06-01T13:58:15.357Z,101237.42
2019-06-01T14:00:44.440Z,101235.88
2019-06-01T14:03:13.480Z,101234.14
2019-06-01T14:05:42.496Z,101230.27
2019-06-01T14:08:27.563Z,101230.47
2019-06-01T14:10:42.770Z,101228.91
2019-06-01T14:13:11.812Z,101220.82
2019-06-01T14:15:40.837Z,101224.67
2019-06-01T14:18:09.878Z,101218.16
2019-06-01T14:20:38.902Z,101218.94
2019-06-01T14:23:07.962Z,101215.16
2019-06-01T14:25:36.963Z,101208.33
2019-06-01T14:28:06.022Z,101204.38
2019-06-01T14:30:35.112Z,101202.55
2019-06-01T14:33:04.314Z,101198.57
2019-06-01T14:35:35.864Z,101194.00
2019-06-01T14:38:04.256Z,101196.36
2019-06-01T14:40:33.319Z,101190.75
2019-06-01T14:43:02.344Z,101191.48
2019-06-01T14:45:31.468Z,101188.84
2019-06-01T14:48:00.692Z,101189.19
2019-06-01T14:50:29.848Z,101183.08
2019-06-01T14:52:59.040Z,101184.45
2019-06-01T14:55:28.097Z,101174.05
2019-06-01T14:57:58.409Z,101167.81
2019-06-01T15:00:27.740Z,101176.75
2019-06-01T15:02:58.297Z,101176.06
2019-06-01T15:05:27.711Z,101168.55
2019-06-01T15:07:57.285Z,101169.88
2019-06-01T15:10:27.710Z,101162.31
2019-06-01T15:13:02.338Z,101162.90
2019-06-01T15:15:27.547Z,101165.63
2019-06-01T15:17:57.547Z,101162.19
2019-06-01T15:20:26.870Z,101158.11
2019-06-01T15:22:56.330Z,101156.68
2019-06-01T15:25:25.827Z,101149.28
2019-06-01T15:27:54.880Z,101153.08
2019-06-01T15:30:25.178Z,101146.50
2019-06-01T15:32:54.227Z,101148.44
2019-06-01T15:35:23.383Z,101145.33
2019-06-01T15:37:57.177Z,101141.05
2019-06-01T15:40:23.233Z,101134.86
2019-06-01T15:42:53.572Z,101133.20
2019-06-01T15:45:22.963Z,101131.83
2019-06-01T15:47:53.103Z,101133.79
2019-06-01T15:50:22.716Z,101125.36
2019-06-01T15:52:52.927Z,101124.32
2019-06-01T15:55:22.114Z,101122.94
2019-06-01T15:57:52.200Z,101120.03
2019-06-01T16:00:21.719Z,101120.47
2019-06-01T16:02:50.771Z,101119.59
2019-06-01T16:05:19.872Z,101114.57
2019-06-01T16:07:48.908Z,101117.67
2019-06-01T16:10:18.075Z,101109.19
2019-06-01T16:12:47.119Z,101104.06
2019-06-01T16:15:16.414Z,101109.64
2019-06-01T16:17:45.480Z,101108.86
2019-06-01T16:20:14.736Z,101105.63
2019-06-01T16:22:43.983Z,101109.34
2019-06-01T16:25:13.579Z,101106.89
2019-06-01T16:27:42.846Z,101110.29
2019-06-01T16:30:12.505Z,101111.13
2019-06-01T16:32:41.892Z,101107.76
2019-06-01T16:35:11.487Z,101105.03
2019-06-01T16:37:40.520Z,101104.44
2019-06-01T16:40:11.097Z,101101.97
2019-06-01T16:42:40.290Z,101107.70
2019-06-01T16:45:10.648Z,101100.47
2019-06-01T16:47:39.707Z,101101.65
2019-06-01T16:50:10.006Z,101103.59
2019-06-01T16:52:39.142Z,101097.95
2019-06-01T16:55:13.052Z,101095.23
2019-06-01T16:57:42.193Z,101097.81
2019-06-01T17:00:12.628Z,101093.14
2019-06-01T17:02:41.713Z,101093.58
2019-06-01T17:05:12.767Z,101091.27
2019-06-01T17:07:41.987Z,101093.03
2019-06-01T17:10:25.806Z,101091.59
2019-06-01T17:12:43.918Z,101090.05
2019-06-01T17:15:14.119Z,101083.52
2019-06-01T17:17:43.320Z,101084.44
2019-06-01T17:20:39.352Z,101084.52
2019-06-01T17:23:24.421Z,101088.20
2019-06-01T17:25:40.544Z,101085.56
2019-06-01T17:28:10.318Z,101085.70
2019-06-01T17:30:39.683Z,101078.75
2019-06-01T17:33:08.832Z,101085.94
2019-06-01T17:35:38.157Z,101082.55
2019-06-01T17:38:09.090Z,101078.92
2019-06-01T17:40:42.486Z,101075.75
2019-06-01T17:43:09.434Z,101082.67
2019-06-01T17:45:38.693Z,101074.70
2019-06-01T17:48:23.015Z,101075.69
2019-06-01T17:50:38.991Z,101079.59
2019-06-01T17:53:08.828Z,101075.06
2019-06-01T17:55:39.572Z,101076.95
2019-06-01T17:58:09.991Z,101076.80
2019-06-01T18:00:40.403Z,101069.25
2019-06-01T18:03:10.108Z,101075.00
2019-06-01T18:05:39.489Z,101067.59
2019-06-01T18:08:08.685Z,101067.16
2019-06-01T18:10:52.589Z,101060.66
2019-06-01T18:13:10.609Z,101058.16
2019-06-01T18:15:39.896Z,101060.44
2019-06-01T18:18:10.458Z,101059.39
2019-06-01T18:20:40.035Z,101063.53
2019-06-01T18:23:10.186Z,101052.52
2019-06-01T18:25:40.162Z,101054.55
2019-06-01T18:28:15.045Z,101054.23
2019-06-01T18:30:40.143Z,101054.55
2019-06-01T18:33:09.550Z,101061.74
2019-06-01T18:35:38.917Z,101053.30
2019-06-01T18:38:08.064Z,101059.58
2019-06-01T18:40:37.321Z,101056.53
2019-06-01T18:43:10.120Z,101055.72
2019-06-01T18:45:39.599Z,101059.92
2019-06-01T18:48:10.140Z,101058.62
2019-06-01T18:50:39.672Z,101054.23
2019-06-01T18:53:10.084Z,101061.00
2019-06-01T18:55:39.453Z,101056.52
2019-06-01T18:58:08.716Z,101056.65
2019-06-01T19:00:40.011Z,101061.17
2019-06-01T19:03:09.140Z,101058.73
2019-06-01T19:05:38.205Z,101059.79
2019-06-01T19:08:07.324Z,101061.63
2019-06-01T19:10:36.664Z,101060.13
2019-06-01T19:13:07.530Z,101057.26
2019-06-01T19:15:36.963Z,101057.29
2019-06-01T19:18:06.387Z,101055.12
2019-06-01T19:20:35.734Z,101056.87
2019-06-01T19:23:06.524Z,101057.49
2019-06-01T19:25:35.904Z,101062.62
2019-06-01T19:28:06.696Z,101056.87
2019-06-01T19:30:38.839Z,101062.52
2019-06-01T19:33:10.846Z,101070.39
2019-06-01T19:35:40.244Z,101069.19
2019-06-01T19:38:11.225Z,101067.87
2019-06-01T19:40:41.813Z,101067.50
2019-06-01T19:43:11.640Z,101070.55
2019-06-01T19:45:40.827Z,101069.80
2019-06-01T19:48:12.181Z,101074.19
2019-06-01T19:50:41.410Z,101072.65
2019-06-01T19:53:10.651Z,101070.98
2019-06-01T19:55:40.029Z,101069.84
2019-06-01T19:58:10.043Z,101073.38
2019-06-01T20:00:39.191Z,101070.47
2019-06-01T20:03:08.320Z,101072.66
2019-06-01T20:05:37.441Z,101069.53
2019-06-01T20:08:06.652Z,101067.83
2019-06-01T20:10:35.834Z,101070.11
2019-06-01T20:13:05.069Z,101068.86
2019-06-01T20:15:34.202Z,101071.72
2019-06-01T20:18:03.431Z,101069.95
2019-06-01T20:20:32.497Z,101070.75
2019-06-01T20:23:01.803Z,101066.53
2019-06-01T20:25:30.870Z,101067.17
2019-06-01T20:27:59.956Z,101071.10
2019-06-01T20:30:29.091Z,101067.17
2019-06-01T20:32:58.168Z,101072.27
2019-06-01T20:35:27.259Z,101072.08
2019-06-01T20:37:56.389Z,101075.39
2019-06-01T20:40:25.512Z,101075.42
2019-06-01T20:42:54.572Z,101077.39
2019-06-01T20:45:23.713Z,101080.55
2019-06-01T20:47:52.811Z,101077.13
2019-06-01T20:50:22.866Z,101080.89
2019-06-01T20:52:52.243Z,101081.70
2019-06-01T20:55:21.442Z,101079.50
2019-06-01T20:57:50.483Z,101079.06
2019-06-01T21:00:20.183Z,101072.74
2019-06-01T21:02:49.350Z,101072.70
2019-06-01T21:05:18.385Z,101068.59
2019-06-01T21:07:47.497Z,101072.63
2019-06-01T21:10:18.249Z,101073.34
2019-06-01T21:12:47.540Z,101073.84
2019-06-01T21:15:17.384Z,101074.96
2019-06-01T21:17:49.806Z,101072.68
2019-06-01T21:20:24.768Z,101063.11
2019-06-01T21:22:48.509Z,101061.83
2019-06-01T21:25:18.848Z,101067.73
2019-06-01T21:27:48.120Z,101067.19
2019-06-01T21:30:20.373Z,101071.05
2019-06-01T21:32:49.185Z,101067.64
2019-06-01T21:35:19.347Z,101073.44
2019-06-01T21:37:48.722Z,101066.78
2019-06-01T21:40:19.335Z,101070.61
2019-06-01T21:43:01.161Z,101072.00
2019-06-01T21:45:19.536Z,101069.47
2019-06-01T21:47:48.800Z,101062.81
2019-06-01T21:50:19.947Z,101066.02
2019-06-01T21:52:49.213Z,101061.09
2019-06-01T21:55:18.219Z,101063.93
2019-06-01T21:57:47.301Z,101063.79
2019-06-01T22:00:26.549Z,101067.81
2019-06-01T22:02:56.021Z,101069.16
2019-06-01T22:05:25.403Z,101059.94
2019-06-01T22:07:54.743Z,101062.79
2019-06-01T22:10:23.897Z,101062.19
2019-06-01T22:12:53.052Z,101065.62
2019-06-01T22:15:22.057Z,101062.80
2019-06-01T22:17:51.136Z,101069.30
2019-06-01T22:20:20.315Z,101059.36
2019-06-01T22:22:49.393Z,101063.92
2019-06-01T22:25:20.412Z,101055.56
2019-06-01T22:27:49.377Z,101055.11
2019-06-01T22:30:20.229Z,101050.23
2019-06-01T22:32:49.677Z,101047.84
2019-06-01T22:35:18.858Z,101049.34
2019-06-01T22:37:48.075Z,101044.67
2019-06-01T22:40:19.232Z,101044.27
2019-06-01T22:42:48.084Z,101045.28
2019-06-01T22:45:18.192Z,101043.45
2019-06-01T22:47:47.337Z,101057.03
2019-06-01T22:50:16.512Z,101052.38
2019-06-01T22:52:45.659Z,101049.53
2019-06-01T22:55:15.054Z,101046.68
2019-06-01T22:57:44.293Z,101052.72
2019-06-01T23:00:15.492Z,101050.37
2019-06-01T23:02:44.529Z,101052.95
2019-06-01T23:05:14.622Z,101047.95
2019-06-01T23:07:43.743Z,101048.20
2019-06-01T23:10:13.264Z,101045.27
2019-06-01T23:12:42.422Z,101047.79
2019-06-01T23:15:11.523Z,101040.13
2019-06-01T23:17:40.770Z,101044.06
2019-06-01T23:20:10.297Z,101042.72
2019-06-01T23:22:39.388Z,101045.34
2019-06-01T23:25:09.517Z,101043.14
2019-06-01T23:27:38.582Z,101039.73
2019-06-01T23:30:08.875Z,101040.50
2019-06-01T23:32:37.923Z,101036.95
2019-06-01T23:35:07.255Z,101036.58
2019-06-01T23:37:36.277Z,101033.30
2019-06-01T23:40:06.699Z,101032.30
2019-06-01T23:42:35.719Z,101028.89
2019-06-01T23:45:08.177Z,101029.28
2019-06-01T23:47:37.309Z,101029.60
2019-06-01T23:50:07.225Z,101028.61
2019-06-01T23:52:36.332Z,101024.16
2019-06-01T23:55:07.400Z,101025.98
2019-06-01T23:57:36.816Z,101019.19
